Time;durP1;ratioP1;P1;durP2;ratioP2;P2;SDS_P1;SDS_P2;PMS_P1;PMS_P2;Temp;Humidity;BMP_temperature;BMP_pressure;BME280_temperature;BME280_humidity;BME280_pressure;Samples;Min_cycle;Max_cycle;Signal;HPM_P1;HPM_P2
2023/07/29 00:01:33;;;;;;;3.00;1.60;;;;;;;19.06;99.63;100043.25;106304;1253;68802;-70
2023/07/29 00:04:00;;;;;;;2.20;1.30;;;;;;;19.10;99.85;100044.11;106411;1250;71720;-71
2023/07/29 00:06:27;;;;;;;2.20;1.40;;;;;;;19.15;100.00;100041.91;106494;1250;61622;-69
2023/07/29 00:08:54;;;;;;;2.30;1.30;;;;;;;19.20;99.67;100033.33;106353;1250;61275;-72
2023/07/29 00:11:21;;;;;;;2.80;1.50;;;;;;;19.23;99.37;100034.45;106411;1253;74605;-69
2023/07/29 00:13:49;;;;;;;3.10;1.30;;;;;;;19.27;99.07;100036.22;106291;1250;69897;-69
2023/07/29 00:16:17;;;;;;;2.50;1.40;;;;;;;19.28;98.74;100037.52;106618;1250;71637;-69
2023/07/29 00:18:44;;;;;;;2.50;1.40;;;;;;;19.29;98.52;100042.27;106442;1249;61847;-71
2023/07/29 00:21:11;;;;;;;2.70;1.30;;;;;;;19.29;98.50;100040.98;106238;1254;61209;-68
2023/07/29 00:23:38;;;;;;;2.90;1.50;;;;;;;19.29;98.66;100045.45;106245;1253;74071;-68
2023/07/29 00:26:05;;;;;;;2.90;1.40;;;;;;;19.29;98.60;100039.20;106325;1255;70148;-70
2023/07/29 00:28:32;;;;;;;2.40;1.40;;;;;;;19.28;98.58;100045.87;106539;1251;71108;-70
2023/07/29 00:30:59;;;;;;;1.70;1.30;;;;;;;19.26;98.37;100043.47;106211;1251;61376;-69
2023/07/29 00:33:25;;;;;;;1.70;1.30;;;;;;;19.24;98.51;100049.47;106266;1254;61296;-70
2023/07/29 00:35:52;;;;;;;1.80;1.20;;;;;;;19.24;98.85;100051.77;106253;1250;74743;-68
2023/07/29 00:38:19;;;;;;;3.50;1.50;;;;;;;19.23;98.77;100052.29;106496;1250;71502;-69
2023/07/29 00:40:46;;;;;;;2.00;1.20;;;;;;;19.23;98.77;100049.55;106303;1250;71412;-68
2023/07/29 00:43:12;;;;;;;3.40;1.40;;;;;;;19.22;98.53;100051.31;106235;1250;62041;-69
2023/07/29 00:45:42;;;;;;;2.00;1.30;;;;;;;19.21;98.32;100043.60;106333;1250;61273;-68
2023/07/29 00:48:09;;;;;;;2.40;1.60;;;;;;;19.19;98.00;100043.20;106401;1251;74348;-69
2023/07/29 00:50:37;;;;;;;2.60;1.50;;;;;;;19.15;97.68;100040.64;106480;1250;70986;-68
2023/07/29 00:53:04;;;;;;;2.30;1.40;;;;;;;19.12;97.76;100033.80;106311;1250;71835;-69
2023/07/29 00:55:30;;;;;;;3.60;1.40;;;;;;;19.07;97.74;100035.52;106272;1250;61816;-69
2023/07/29 00:57:57;;;;;;;2.50;1.40;;;;;;;19.01;97.84;100042.10;106247;1253;61224;-69
2023/07/29 01:00:24;;;;;;;2.80;1.60;;;;;;;18.94;98.06;100042.74;106510;1250;73774;-69
2023/07/29 01:02:54;;;;;;;1.80;1.40;;;;;;;18.87;98.02;100038.44;106344;1250;71263;-69
2023/07/29 01:05:22;;;;;;;3.30;1.60;;;;;;;18.81;98.13;100034.77;106297;1250;71570;-70
2023/07/29 01:08:09;;;;;;;2.40;1.80;;;;;;;18.74;98.18;100040.06;106331;1250;62373;-69
2023/07/29 01:10:45;;;;;;;3.00;1.60;;;;;;;18.67;98.26;100033.11;106335;1249;62220;-69
2023/07/29 01:13:19;;;;;;;3.10;1.60;;;;;;;18.61;98.54;100039.63;106286;1250;73960;-68
2023/07/29 01:16:00;;;;;;;2.50;1.50;;;;;;;18.54;99.22;100041.66;106466;1250;69945;-70
2023/07/29 01:18:32;;;;;;;2.40;1.50;;;;;;;18.47;99.49;100039.08;106289;1250;72724;-69
2023/07/29 01:21:07;;;;;;;2.90;1.80;;;;;;;18.40;99.85;100034.45;106398;1254;61365;-69
2023/07/29 01:23:34;;;;;;;3.00;1.50;;;;;;;18.35;100.00;100030.42;106510;1250;61234;-69
2023/07/29 01:26:02;;;;;;;4.00;1.80;;;;;;;18.30;100.00;100027.94;106389;1250;73280;-68
2023/07/29 01:28:30;;;;;;;2.70;1.70;;;;;;;18.26;100.00;100028.88;106273;1250;71220;-69
2023/07/29 01:31:10;;;;;;;2.00;1.50;;;;;;;18.23;100.00;100030.23;106437;1250;72668;-69
2023/07/29 01:33:46;;;;;;;2.80;1.80;;;;;;;18.19;100.00;100030.66;106637;1253;61105;-69
2023/07/29 01:36:22;;;;;;;2.60;1.70;;;;;;;18.15;100.00;100021.88;106374;1254;61295;-68
2023/07/29 01:38:51;;;;;;;2.90;1.80;;;;;;;18.11;100.00;100016.86;106247;1250;73502;-69
2023/07/29 01:41:18;;;;;;;3.40;1.90;;;;;;;18.07;100.00;100018.73;106424;1255;71781;-68
2023/07/29 01:43:46;;;;;;;2.20;1.90;;;;;;;18.03;100.00;100015.59;106298;1250;72890;-70
2023/07/29 01:46:14;;;;;;;3.50;1.80;;;;;;;17.98;100.00;100014.86;106154;1254;61430;-69
2023/07/29 01:48:42;;;;;;;3.70;2.20;;;;;;;17.96;100.00;100015.94;106352;1250;61286;-70
2023/07/29 01:51:12;;;;;;;2.50;1.90;;;;;;;17.94;100.00;100019.24;106603;1250;75243;-69
2023/07/29 01:53:38;;;;;;;2.70;2.00;;;;;;;17.94;100.00;100019.61;106392;1250;71163;-68
2023/07/29 01:56:05;;;;;;;2.60;2.00;;;;;;;17.95;100.00;100014.64;106324;1251;71631;-69
2023/07/29 01:58:32;;;;;;;2.50;1.90;;;;;;;17.97;100.00;100017.52;106254;1250;61972;-69
2023/07/29 02:00:59;;;;;;;3.20;2.00;;;;;;;18.00;100.00;100016.34;106457;1251;59698;-72
2023/07/29 02:03:25;;;;;;;3.80;1.80;;;;;;;18.03;100.00;100018.60;106680;1249;72661;-68
2023/07/29 02:05:52;;;;;;;4.50;2.00;;;;;;;18.06;100.00;100019.14;106376;1252;69657;-69
2023/07/29 02:08:19;;;;;;;2.10;1.70;;;;;;;18.09;100.00;100017.80;106357;1251;71443;-69
2023/07/29 02:10:46;;;;;;;2.90;1.90;;;;;;;18.12;100.00;100012.23;106287;1250;61490;-71
2023/07/29 02:13:12;;;;;;;3.60;1.90;;;;;;;18.15;100.00;100006.95;106533;1255;61307;-69
2023/07/29 02:15:39;;;;;;;3.00;1.80;;;;;;;18.17;100.00;99998.95;106329;1250;73151;-69
2023/07/29 02:18:07;;;;;;;2.80;1.70;;;;;;;18.19;100.00;99997.05;106368;1250;69903;-69
2023/07/29 02:20:34;;;;;;;2.30;1.80;;;;;;;18.21;100.00;99995.68;106355;1250;72654;-69
2023/07/29 02:23:01;;;;;;;2.40;1.70;;;;;;;18.23;100.00;99996.30;106433;1250;61371;-70
2023/07/29 02:25:28;;;;;;;2.70;1.60;;;;;;;18.25;100.00;99994.88;106276;1250;61657;-69
2023/07/29 02:27:54;;;;;;;2.20;1.40;;;;;;;18.27;100.00;99996.20;106324;1254;73725;-68
2023/07/29 02:30:21;;;;;;;2.60;1.60;;;;;;;18.29;100.00;99996.06;106305;1250;71131;-70
2023/07/29 02:32:48;;;;;;;2.70;1.60;;;;;;;18.31;100.00;99994.70;106400;1251;71774;-69
2023/07/29 02:35:15;;;;;;;2.50;1.60;;;;;;;18.33;100.00;99991.05;106531;1253;61385;-69
2023/07/29 02:37:42;;;;;;;2.50;1.50;;;;;;;18.38;100.00;99987.19;106247;1250;61686;-70
2023/07/29 02:40:10;;;;;;;1.80;1.50;;;;;;;18.42;100.00;99988.61;106266;1252;73444;-70
2023/07/29 02:42:36;;;;;;;3.50;1.40;;;;;;;18.45;100.00;99986.67;106443;1250;71271;-70
2023/07/29 02:45:04;;;;;;;2.00;1.50;;;;;;;18.49;100.00;99985.55;106415;1250;71434;-71
2023/07/29 02:47:30;;;;;;;2.50;1.50;;;;;;;18.53;100.00;99983.58;106374;1250;61495;-71
2023/07/29 02:49:57;;;;;;;2.30;1.50;;;;;;;18.55;100.00;99978.13;106314;1250;61382;-69
2023/07/29 02:52:24;;;;;;;5.70;1.80;;;;;;;18.56;100.00;99980.61;106401;1252;73435;-69
2023/07/29 02:54:51;;;;;;;3.20;1.70;;;;;;;18.56;100.00;99979.21;106345;1250;70022;-69
2023/07/29 02:57:17;;;;;;;2.20;1.70;;;;;;;18.56;100.00;99981.04;106458;1250;61255;-70
2023/07/29 02:59:44;;;;;;;2.30;1.60;;;;;;;18.56;100.00;99980.39;106261;1249;61858;-70
2023/07/29 03:02:11;;;;;;;2.50;1.60;;;;;;;18.54;100.00;99981.48;106312;1251;61238;-69
2023/07/29 03:04:38;;;;;;;2.20;1.60;;;;;;;18.53;100.00;99980.45;106254;1254;73475;-70
2023/07/29 03:07:04;;;;;;;2.50;1.60;;;;;;;18.52;100.00;99982.75;106483;1253;70371;-70
2023/07/29 03:09:32;;;;;;;2.50;1.60;;;;;;;18.51;100.00;99988.45;106387;1250;71412;-71
2023/07/29 03:12:00;;;;;;;2.40;1.60;;;;;;;18.50;100.00;99992.07;106434;1250;62074;-71
2023/07/29 03:14:27;;;;;;;1.90;1.50;;;;;;;18.49;100.00;99998.24;106288;1253;61174;-69
2023/07/29 03:16:54;;;;;;;2.00;1.50;;;;;;;18.50;100.00;99998.89;106406;1255;72727;-70
2023/07/29 03:19:21;;;;;;;2.90;1.50;;;;;;;18.50;100.00;100000.44;106482;1250;71081;-69
2023/07/29 03:21:49;;;;;;;2.30;1.50;;;;;;;18.50;100.00;99991.96;106264;1250;71642;-69
2023/07/29 03:24:16;;;;;;;2.40;1.60;;;;;;;18.50;100.00;99986.64;106195;1250;61650;-70
2023/07/29 03:26:43;;;;;;;2.50;1.40;;;;;;;18.52;100.00;99984.95;106430;1250;61248;-70
2023/07/29 03:29:12;;;;;;;2.80;1.40;;;;;;;18.53;100.00;99986.15;106659;1250;74619;-69
2023/07/29 03:31:39;;;;;;;2.20;1.40;;;;;;;18.55;100.00;99987.27;106362;1250;69978;-69
2023/07/29 03:34:06;;;;;;;1.80;1.30;;;;;;;18.57;100.00;99986.16;106338;1253;71583;-69
2023/07/29 03:36:32;;;;;;;2.80;1.40;;;;;;;18.60;100.00;99983.58;106288;1250;61325;-70
2023/07/29 03:39:00;;;;;;;1.90;1.30;;;;;;;18.63;100.00;99978.19;106300;1250;61239;-69
2023/07/29 03:41:27;;;;;;;1.80;1.20;;;;;;;18.65;100.00;99974.56;106491;1250;74660;-69
2023/07/29 03:43:53;;;;;;;1.90;1.20;;;;;;;18.68;100.00;99975.15;106360;1254;69893;-69
2023/07/29 03:46:22;;;;;;;2.60;1.30;;;;;;;18.71;100.00;99975.90;106254;1250;71708;-69
2023/07/29 03:48:49;;;;;;;1.90;1.30;;;;;;;18.74;100.00;99979.59;106425;1250;62097;-69
2023/07/29 03:51:16;;;;;;;2.40;1.40;;;;;;;18.75;100.00;99980.42;106537;1250;61356;-70
2023/07/29 03:53:42;;;;;;;1.90;1.30;;;;;;;18.77;100.00;99980.06;106368;1255;74634;-70
2023/07/29 03:56:09;;;;;;;1.70;1.20;;;;;;;18.78;100.00;99977.15;106393;1250;61264;-70
2023/07/29 03:58:36;;;;;;;2.70;1.30;;;;;;;18.80;100.00;99977.67;106300;1254;71913;-69
2023/07/29 04:01:04;;;;;;;2.70;1.40;;;;;;;18.82;100.00;99977.69;106311;1253;61272;-71
2023/07/29 04:03:31;;;;;;;2.20;1.20;;;;;;;18.82;100.00;99966.67;106355;1250;61349;-69
2023/07/29 04:05:58;;;;;;;1.80;1.30;;;;;;;18.83;100.00;99961.97;106368;1253;74648;-70
2023/07/29 04:08:26;;;;;;;2.10;1.50;;;;;;;18.85;100.00;99960.27;106278;1250;71526;-68
2023/07/29 04:10:52;;;;;;;2.10;1.30;;;;;;;18.87;100.00;99959.02;106264;1250;73227;-69
2023/07/29 04:13:19;;;;;;;1.80;1.30;;;;;;;18.89;100.00;99952.59;106632;1253;62082;-68
2023/07/29 04:15:46;;;;;;;1.50;1.10;;;;;;;18.91;100.00;99958.33;106394;1250;61373;-68
2023/07/29 04:18:13;;;;;;;1.70;1.20;;;;;;;18.94;100.00;99959.80;106361;1252;73419;-68
2023/07/29 04:20:40;;;;;;;3.00;1.30;;;;;;;18.95;100.00;99962.45;106269;1254;69185;-69
2023/07/29 04:23:07;;;;;;;2.30;1.30;;;;;;;18.96;99.98;99961.50;106355;1250;71497;-70
2023/07/29 04:25:34;;;;;;;2.30;1.20;;;;;;;18.98;99.96;99961.20;106299;1253;61438;-68
2023/07/29 04:28:03;;;;;;;2.40;1.20;;;;;;;19.00;99.71;99961.08;106337;1250;61114;-69
2023/07/29 04:30:30;;;;;;;2.70;1.20;;;;;;;19.02;99.66;99953.23;106421;1250;73468;-69
2023/07/29 04:32:56;;;;;;;3.20;1.60;;;;;;;19.04;99.57;99950.47;106280;1253;70006;-68
2023/07/29 04:35:23;;;;;;;2.40;1.40;;;;;;;19.04;99.53;99950.70;106582;1250;72833;-68
2023/07/29 04:37:50;;;;;;;3.60;1.80;;;;;;;19.06;99.54;99946.64;106277;1250;61318;-69
2023/07/29 04:40:17;;;;;;;2.30;1.50;;;;;;;19.09;99.51;99940.59;106259;1250;61255;-72
2023/07/29 04:42:44;;;;;;;3.40;1.40;;;;;;;19.10;99.42;99936.95;106303;1253;73682;-68
2023/07/29 04:45:10;;;;;;;2.50;1.30;;;;;;;19.12;99.37;99936.16;106417;1254;70363;-69
2023/07/29 04:47:37;;;;;;;1.90;1.30;;;;;;;19.13;99.38;99929.56;106449;1250;72689;-67
2023/07/29 04:50:06;;;;;;;2.30;1.50;;;;;;;19.14;99.37;99931.61;106344;1250;61164;-71
2023/07/29 04:52:32;;;;;;;2.30;1.30;;;;;;;19.15;99.37;99933.20;106422;1250;61247;-69
2023/07/29 04:54:59;;;;;;;2.80;1.40;;;;;;;19.15;99.33;99939.38;106286;1252;74641;-69
2023/07/29 04:57:26;;;;;;;4.20;1.80;;;;;;;19.14;99.33;99946.95;106687;1250;70368;-69
2023/07/29 04:59:53;;;;;;;2.50;1.60;;;;;;;19.13;99.49;99952.20;106215;1250;71527;-71
2023/07/29 05:02:20;;;;;;;2.80;1.60;;;;;;;19.12;99.50;99950.14;106327;1250;62098;-68
2023/07/29 05:04:47;;;;;;;2.40;1.80;;;;;;;19.11;99.65;99944.81;106344;1250;61636;-69
2023/07/29 05:07:14;;;;;;;3.20;1.50;;;;;;;19.11;99.80;99942.07;106424;1253;74113;-70
2023/07/29 05:09:41;;;;;;;2.60;1.40;;;;;;;19.12;99.82;99941.59;106335;1250;71677;-69
2023/07/29 05:12:08;;;;;;;3.60;1.50;;;;;;;19.13;99.82;99946.50;106340;1250;71148;-69
2023/07/29 05:14:35;;;;;;;2.00;1.30;;;;;;;19.14;99.86;99943.06;106372;1250;61966;-68
2023/07/29 05:17:02;;;;;;;1.80;1.20;;;;;;;19.17;99.92;99942.58;106285;1253;62637;-69
2023/07/29 05:19:29;;;;;;;2.10;1.30;;;;;;;19.21;99.96;99947.89;106618;1250;74358;-69
2023/07/29 05:21:57;;;;;;;3.40;1.40;;;;;;;19.26;99.93;99952.36;106212;1255;70013;-69
2023/07/29 05:24:24;;;;;;;2.80;1.40;;;;;;;19.32;99.98;99950.39;106214;1250;72750;-72
2023/07/29 05:26:51;;;;;;;2.10;1.40;;;;;;;19.37;99.93;99947.64;106291;1250;62905;-68
2023/07/29 05:29:17;;;;;;;3.40;1.50;;;;;;;19.40;99.91;99941.88;106424;1256;61211;-69
2023/07/29 05:31:44;;;;;;;2.60;1.40;;;;;;;19.44;99.89;99937.13;106348;1250;74643;-69
2023/07/29 05:34:11;;;;;;;2.40;1.40;;;;;;;19.47;99.98;99935.08;106171;1250;71270;-68
2023/07/29 05:36:39;;;;;;;4.60;1.70;;;;;;;19.50;99.97;99936.13;106318;1253;61395;-67
2023/07/29 05:39:05;;;;;;;8.70;2.00;;;;;;;19.53;100.00;99933.04;106413;1250;61801;-68
2023/07/29 05:41:32;;;;;;;2.90;1.80;;;;;;;19.54;100.00;99926.38;106482;1252;61222;-67
2023/07/29 05:43:59;;;;;;;2.80;1.50;;;;;;;19.54;100.00;99920.52;106331;1254;73963;-68
2023/07/29 05:46:26;;;;;;;3.20;1.60;;;;;;;19.54;100.00;99916.25;106304;1250;71119;-68
2023/07/29 05:48:53;;;;;;;2.80;1.70;;;;;;;19.52;100.00;99912.73;106349;1250;71923;-68
2023/07/29 05:51:19;;;;;;;3.00;1.80;;;;;;;19.52;100.00;99914.08;106417;1250;61303;-69
2023/07/29 05:53:46;;;;;;;3.30;1.80;;;;;;;19.52;100.00;99914.57;106488;1250;61166;-67
2023/07/29 05:56:13;;;;;;;2.40;1.60;;;;;;;19.55;100.00;99914.21;106333;1253;61388;-67
2023/07/29 05:58:39;;;;;;;2.30;1.60;;;;;;;19.62;100.00;99913.27;106304;1253;70060;-67
2023/07/29 06:01:06;;;;;;;2.50;1.50;;;;;;;19.72;100.00;99916.67;106313;1250;72750;-68
2023/07/29 06:03:33;;;;;;;2.40;1.70;;;;;;;19.83;100.00;99917.34;106523;1250;61785;-68
2023/07/29 06:06:00;;;;;;;3.20;1.60;;;;;;;19.93;100.00;99920.38;106395;1250;61718;-68
2023/07/29 06:08:28;;;;;;;3.20;1.50;;;;;;;20.03;100.00;99911.63;106329;1253;74041;-67
2023/07/29 06:10:55;;;;;;;2.60;1.40;;;;;;;20.12;100.00;99913.36;106334;1250;70012;-68
2023/07/29 06:13:21;;;;;;;2.00;1.20;;;;;;;20.18;100.00;99912.83;106547;1250;71452;-69
2023/07/29 06:15:49;;;;;;;2.30;1.40;;;;;;;20.25;100.00;99917.02;106437;1253;62114;-68
2023/07/29 06:18:16;;;;;;;5.40;1.70;;;;;;;20.32;100.00;99917.34;106351;1255;61221;-67
2023/07/29 06:20:43;;;;;;;2.80;1.40;;;;;;;20.34;99.69;99918.34;106291;1250;73293;-68
2023/07/29 06:23:10;;;;;;;4.10;1.30;;;;;;;20.34;99.42;99914.77;106375;1250;71380;-67
2023/07/29 06:25:36;;;;;;;2.70;1.50;;;;;;;20.33;99.53;99912.06;106613;1250;73415;-68
2023/07/29 06:28:04;;;;;;;2.50;1.40;;;;;;;20.34;99.90;99911.38;106408;1250;61479;-70
2023/07/29 06:30:32;;;;;;;3.50;1.60;;;;;;;20.34;99.66;99905.45;106335;1250;61276;-68
2023/07/29 06:32:58;;;;;;;3.60;1.40;;;;;;;20.33;99.55;99914.60;106225;1250;72890;-69
2023/07/29 06:35:25;;;;;;;2.90;1.40;;;;;;;20.31;99.36;99920.56;106395;1250;71166;-68
2023/07/29 06:37:52;;;;;;;3.60;1.40;;;;;;;20.32;99.84;99926.83;106462;1250;71462;-69
2023/07/29 06:40:19;;;;;;;4.40;1.50;;;;;;;20.35;100.00;99933.05;106425;1255;61284;-69
2023/07/29 06:42:46;;;;;;;4.00;1.50;;;;;;;20.39;99.99;99930.87;106265;1254;61257;-69
2023/07/29 06:45:12;;;;;;;3.60;1.60;;;;;;;20.43;100.00;99928.84;106404;1253;74694;-70
2023/07/29 06:47:39;;;;;;;4.00;1.50;;;;;;;20.48;100.00;99935.17;106661;1250;69883;-69
2023/07/29 06:50:07;;;;;;;3.20;1.40;;;;;;;20.55;100.00;99937.54;106144;1250;72519;-69
2023/07/29 06:52:33;;;;;;;3.90;1.50;;;;;;;20.62;100.00;99937.25;106316;1255;61365;-70
2023/07/29 06:55:00;;;;;;;3.30;1.40;;;;;;;20.72;100.00;99942.16;106296;1250;61214;-69
2023/07/29 06:57:27;;;;;;;2.90;1.40;;;;;;;20.82;100.00;99945.23;106409;1250;73477;-70
2023/07/29 06:59:54;;;;;;;4.10;1.40;;;;;;;20.88;99.96;99947.30;106394;1250;70125;-71
2023/07/29 07:02:20;;;;;;;4.10;1.70;;;;;;;20.95;99.92;99950.47;106395;1254;72711;-70
2023/07/29 07:04:47;;;;;;;3.60;1.40;;;;;;;21.03;99.66;99947.50;106427;1250;61810;-70
2023/07/29 07:07:15;;;;;;;2.70;1.40;;;;;;;21.13;99.70;99945.05;106229;1257;61228;-70
2023/07/29 07:09:42;;;;;;;2.60;1.40;;;;;;;21.22;99.10;99937.00;106574;1255;74708;-71
2023/07/29 07:12:08;;;;;;;3.40;1.10;;;;;;;21.30;98.64;99940.48;106326;1251;70130;-70
2023/07/29 07:14:35;;;;;;;3.50;1.30;;;;;;;21.35;97.48;99946.34;106341;1255;71179;-70
2023/07/29 07:17:02;;;;;;;1.70;1.00;;;;;;;21.39;96.84;99950.11;106279;1250;62051;-71
2023/07/29 07:19:29;;;;;;;4.00;1.30;;;;;;;21.39;96.48;99948.52;106389;1255;61440;-71
2023/07/29 07:21:56;;;;;;;2.10;1.10;;;;;;;21.42;96.67;99948.16;106381;1250;74624;-69
2023/07/29 07:24:22;;;;;;;2.50;1.30;;;;;;;21.41;96.15;99947.23;106442;1254;69021;-69
2023/07/29 07:26:49;;;;;;;2.30;1.20;;;;;;;21.38;96.32;99945.65;106353;1250;61245;-69
2023/07/29 07:29:16;;;;;;;2.90;1.10;;;;;;;21.36;96.30;99941.27;106373;1254;62048;-69
2023/07/29 07:31:51;;;;;;;2.80;1.20;;;;;;;21.35;96.63;99938.51;106457;1251;61764;-69
2023/07/29 07:34:19;;;;;;;1.90;1.20;;;;;;;21.33;96.29;99937.69;106351;1250;74784;-69
2023/07/29 07:36:46;;;;;;;2.60;1.10;;;;;;;21.30;96.31;99934.81;106311;1254;69071;-69
2023/07/29 07:39:13;;;;;;;2.30;1.10;;;;;;;21.32;96.71;99932.78;106332;1250;71779;-69
2023/07/29 07:41:41;;;;;;;3.10;1.40;;;;;;;21.37;97.04;99929.83;106503;1250;62026;-70
2023/07/29 07:44:08;;;;;;;1.80;1.20;;;;;;;21.42;96.73;99930.84;106330;1250;61210;-69
2023/07/29 07:46:35;;;;;;;3.00;1.30;;;;;;;21.44;96.84;99932.58;106268;1253;74019;-69
2023/07/29 07:49:03;;;;;;;2.20;1.30;;;;;;;21.51;96.76;99928.23;106398;1254;71179;-69
2023/07/29 07:51:29;;;;;;;4.40;1.20;;;;;;;21.56;96.60;99926.51;106571;1250;71454;-70
2023/07/29 07:53:56;;;;;;;1.70;1.00;;;;;;;21.67;96.43;99921.95;105946;1255;455119;-69
2023/07/29 07:56:22;;;;;;;1.80;1.10;;;;;;;21.80;96.41;99917.75;106367;1253;61199;-68
2023/07/29 07:58:49;;;;;;;2.00;1.10;;;;;;;21.96;95.73;99918.02;106309;1250;75911;-68
2023/07/29 08:01:16;;;;;;;2.20;0.90;;;;;;;22.08;94.28;99907.65;106309;1250;71310;-69
2023/07/29 08:03:43;;;;;;;2.30;1.00;;;;;;;22.19;93.83;99905.71;106689;1250;72565;-69
2023/07/29 08:06:10;;;;;;;3.30;1.00;;;;;;;22.31;92.90;99911.72;106420;1250;61855;-72
2023/07/29 08:08:37;;;;;;;2.40;1.00;;;;;;;22.40;92.56;99906.14;106218;1256;61162;-67
2023/07/29 08:11:03;;;;;;;2.10;0.90;;;;;;;22.50;91.87;99904.18;106483;1255;73529;-68
2023/07/29 08:13:30;;;;;;;2.30;1.00;;;;;;;22.63;91.93;99905.56;106397;1250;71381;-68
2023/07/29 08:15:57;;;;;;;2.60;1.10;;;;;;;22.75;90.39;99908.83;106472;1254;71525;-67
2023/07/29 08:18:24;;;;;;;2.40;1.00;;;;;;;22.83;89.87;99917.40;106287;1250;62000;-67
2023/07/29 08:20:55;;;;;;;2.10;0.90;;;;;;;22.91;89.10;99918.89;106453;1254;61169;-71
2023/07/29 08:23:22;;;;;;;2.30;0.90;;;;;;;23.00;89.21;99917.95;106366;1255;74350;-70
2023/07/29 08:26:01;;;;;;;3.00;1.00;;;;;;;23.11;89.19;99914.90;106431;1251;68935;-67
2023/07/29 08:28:30;;;;;;;1.60;0.70;;;;;;;23.23;87.49;99912.40;106422;1253;72581;-69
2023/07/29 08:30:58;;;;;;;2.60;0.90;;;;;;;23.33;86.50;99912.61;106425;1250;61666;-68
2023/07/29 08:33:24;;;;;;;1.90;1.00;;;;;;;23.38;85.60;99914.76;106497;1250;61248;-68
2023/07/29 08:35:51;;;;;;;1.60;0.90;;;;;;;23.40;85.19;99923.35;106470;1250;74619;-67
2023/07/29 08:38:19;;;;;;;1.90;0.80;;;;;;;23.40;85.20;99922.77;106511;1250;71267;-68
2023/07/29 08:40:53;;;;;;;2.90;1.10;;;;;;;23.38;84.83;99919.63;106223;1250;72712;-68
2023/07/29 08:43:29;;;;;;;2.30;1.10;;;;;;;23.35;84.56;99922.66;106431;1253;62903;-69
2023/07/29 08:45:57;;;;;;;4.00;1.80;;;;;;;23.29;84.33;99923.19;106403;1250;62392;-68
2023/07/29 08:48:32;;;;;;;2.10;1.20;;;;;;;23.22;84.78;99920.89;106315;1253;74695;-68
2023/07/29 08:51:00;;;;;;;4.00;1.70;;;;;;;23.08;84.86;99932.77;106347;1250;71537;-70
2023/07/29 08:53:28;;;;;;;3.50;1.60;;;;;;;22.89;85.62;99926.73;106328;1255;72787;-68
2023/07/29 08:55:55;;;;;;;3.60;2.50;;;;;;;22.78;86.07;99924.81;106398;1250;62074;-69
2023/07/29 08:58:23;;;;;;;4.70;2.10;;;;;;;22.69;86.89;99911.98;106282;1250;61276;-68
2023/07/29 09:00:50;;;;;;;2.40;1.30;;;;;;;22.69;87.16;99903.00;106302;1250;74792;-68
2023/07/29 09:03:17;;;;;;;1.80;1.30;;;;;;;22.65;86.79;99908.52;106425;1250;70253;-69
2023/07/29 09:05:45;;;;;;;3.20;1.50;;;;;;;22.61;86.95;99913.89;106415;1250;71682;-68
2023/07/29 09:08:12;;;;;;;2.70;1.40;;;;;;;22.52;87.14;99921.10;106376;1251;62329;-68
2023/07/29 09:10:39;;;;;;;2.20;1.30;;;;;;;22.40;87.44;99921.88;106266;1251;61717;-68
2023/07/29 09:13:06;;;;;;;2.40;1.80;;;;;;;22.30;87.97;99920.27;106532;1253;73819;-69
2023/07/29 09:15:35;;;;;;;2.40;1.70;;;;;;;22.21;88.52;99918.80;106405;1250;68816;-69
2023/07/29 09:18:20;;;;;;;3.30;1.70;;;;;;;22.16;89.10;99915.81;106231;1255;73061;-69
2023/07/29 09:20:48;;;;;;;3.80;1.80;;;;;;;22.12;89.52;99915.00;106333;1255;62132;-70
2023/07/29 09:23:16;;;;;;;14.30;3.00;;;;;;;22.12;89.47;99911.77;106343;1250;61804;-68
2023/07/29 09:25:43;;;;;;;4.00;2.10;;;;;;;22.10;89.03;99913.39;106385;1254;72516;-68
2023/07/29 09:28:12;;;;;;;3.50;2.20;;;;;;;22.18;88.93;99904.63;106346;1255;68883;-68
2023/07/29 09:30:40;;;;;;;2.80;1.30;;;;;;;22.34;88.80;99894.60;106406;1253;71521;-71
2023/07/29 09:33:07;;;;;;;3.00;1.40;;;;;;;22.51;87.83;99892.11;106456;1255;62391;-71
2023/07/29 09:35:36;;;;;;;3.90;1.90;;;;;;;22.75;87.64;99894.94;106343;1256;61237;-70
2023/07/29 09:38:04;;;;;;;3.30;1.70;;;;;;;23.03;87.32;99888.02;106333;1252;73163;-68
2023/07/29 09:40:36;;;;;;;2.60;1.70;;;;;;;23.32;85.64;99896.88;106362;1254;68963;-70
2023/07/29 09:43:04;;;;;;;2.20;1.90;;;;;;;23.53;83.61;99895.34;106684;1253;71511;-71
2023/07/29 09:45:34;;;;;;;3.90;2.10;;;;;;;23.75;82.26;99895.20;106358;1250;62054;-68
2023/07/29 09:48:01;;;;;;;3.30;2.00;;;;;;;24.03;81.80;99887.79;106396;1253;61159;-67
2023/07/29 09:50:28;;;;;;;3.20;2.40;;;;;;;24.31;80.15;99882.92;106427;1250;74664;-70
2023/07/29 09:52:58;;;;;;;4.70;3.00;;;;;;;24.51;77.91;99882.52;106464;1250;70958;-69
2023/07/29 09:55:26;;;;;;;4.10;2.30;;;;;;;24.65;76.67;99883.20;106361;1250;70462;-68
2023/07/29 09:58:01;;;;;;;5.20;2.90;;;;;;;24.79;76.35;99891.38;106293;1253;61416;-68
2023/07/29 10:00:31;;;;;;;3.50;2.50;;;;;;;24.84;75.29;99889.27;106320;1251;61240;-70
2023/07/29 10:02:59;;;;;;;4.30;3.00;;;;;;;24.91;75.26;99884.15;106302;1250;73533;-69
2023/07/29 10:05:27;;;;;;;3.00;2.40;;;;;;;24.91;74.80;99888.77;106287;1255;69709;-68
2023/07/29 10:07:55;;;;;;;4.40;3.30;;;;;;;24.74;73.82;99896.11;106264;1251;71272;-67
2023/07/29 10:10:22;;;;;;;3.90;3.00;;;;;;;24.56;75.47;99903.45;106337;1251;61366;-68
2023/07/29 10:12:50;;;;;;;4.00;3.40;;;;;;;24.28;74.26;99900.48;106344;1250;61280;-68
2023/07/29 10:15:17;;;;;;;3.90;3.40;;;;;;;23.98;73.64;99899.70;106336;1251;72511;-68
2023/07/29 10:17:46;;;;;;;5.50;3.50;;;;;;;23.74;73.94;99890.28;106321;1255;70323;-68
2023/07/29 10:20:16;;;;;;;3.90;3.40;;;;;;;23.51;73.36;99903.38;106272;1255;72495;-70
2023/07/29 10:22:46;;;;;;;3.90;3.50;;;;;;;23.40;72.95;99896.66;106342;1250;61307;-69
2023/07/29 10:25:17;;;;;;;4.80;4.30;;;;;;;23.49;73.99;99899.98;106346;1254;61248;-68
2023/07/29 10:28:05;;;;;;;3.80;3.40;;;;;;;23.64;73.71;99896.52;106349;1256;73508;-68
2023/07/29 10:30:33;;;;;;;3.70;3.20;;;;;;;23.83;73.30;99894.62;106315;1255;71235;-69
2023/07/29 10:33:07;;;;;;;4.00;3.10;;;;;;;23.97;70.54;99892.08;106327;1254;72270;-69
2023/07/29 10:35:35;;;;;;;3.20;2.90;;;;;;;24.06;69.99;99889.78;106280;1254;61717;-68
2023/07/29 10:38:04;;;;;;;4.70;3.60;;;;;;;24.13;69.79;99888.08;106499;1255;61163;-69
2023/07/29 10:40:59;;;;;;;4.20;2.80;;;;;;;24.18;69.28;99882.08;106366;1255;74383;-70
2023/07/29 10:43:33;;;;;;;3.90;2.90;;;;;;;24.29;68.51;99880.94;106337;1255;70416;-70
2023/07/29 10:46:19;;;;;;;3.10;2.80;;;;;;;24.33;67.51;99885.41;106340;1251;72804;-70
2023/07/29 10:48:57;;;;;;;5.50;2.60;;;;;;;24.35;66.77;99881.04;106275;1255;61346;-69
2023/07/29 10:51:32;;;;;;;3.50;2.50;;;;;;;24.41;66.61;99885.54;106407;1257;61269;-69
2023/07/29 10:54:00;;;;;;;6.40;2.50;;;;;;;24.49;67.14;99878.00;106433;1256;74416;-67
2023/07/29 10:56:35;;;;;;;3.80;2.40;;;;;;;24.54;64.87;99886.19;106202;1251;69919;-70
2023/07/29 10:59:30;;;;;;;2.60;2.20;;;;;;;24.56;65.08;99884.00;106596;1255;71120;-70
2023/07/29 11:01:58;;;;;;;2.80;2.00;;;;;;;24.62;64.35;99876.50;106364;1251;62301;-70
2023/07/29 11:04:29;;;;;;;2.90;2.00;;;;;;;24.67;62.70;99877.95;106515;1256;61658;-72
2023/07/29 11:07:04;;;;;;;2.30;1.80;;;;;;;24.70;61.54;99875.98;106246;1254;72181;-70
2023/07/29 11:09:49;;;;;;;2.60;1.80;;;;;;;24.60;61.11;99871.42;106355;1251;69865;-69
2023/07/29 11:12:42;;;;;;;2.70;2.00;;;;;;;24.66;60.84;99863.29;106412;1254;73171;-70
2023/07/29 11:15:09;;;;;;;2.20;1.60;;;;;;;24.73;58.33;99878.27;106335;1251;62416;-70
2023/07/29 11:17:39;;;;;;;2.10;1.70;;;;;;;24.81;59.01;99861.03;106401;1251;61724;-71
2023/07/29 11:20:07;;;;;;;2.20;1.80;;;;;;;24.94;57.99;99865.54;106308;1255;74692;-72
2023/07/29 11:22:36;;;;;;;2.20;1.60;;;;;;;25.00;56.72;99869.81;106312;1253;69626;-71
2023/07/29 11:25:03;;;;;;;1.90;1.50;;;;;;;25.06;55.90;99878.85;106464;1257;72784;-70
2023/07/29 11:27:29;;;;;;;2.20;1.40;;;;;;;25.07;56.15;99873.09;106255;1256;62788;-72